KLOU/LOU METAR and TAF weather

Enter ICAO airport designator
Station Type Date Time Source
KLOU METAR 2020/01/21 08:53 UTC NOAA

KLOU 210853Z AUTO 00000KT 9SM OVC032 M04/M09 A3060 RMK AO2 SLP368 T10391089 51005


Station Type Date Time Source
KLOU Decoded METAR 2020/01/21 08:53 UTC NOAA

BOWMAN FIELD, KY, United States (KLOU) 38-14N 085-40W 164M
Jan 21, 2020 - 03:53 AM EST / 2020.01.21 0853 UTC
Wind: Calm:0
Visibility: 9 mile(s):0
Sky conditions: overcast
Temperature: 25.0 F (-3.9 C)
Dew Point: 16.0 F (-8.9 C)
Relative Humidity: 68%
Pressure (altimeter): 30.6 in. Hg (1036 hPa)
Pressure tendency: 0.01 inches (0.5 hPa) higher than three hours ago
ob: KLOU 210853Z AUTO 00000KT 9SM OVC032 M04/M09 A3060 RMK AO2 SLP368 T10391089 51005
cycle: 9

Station Type Date Time Source
KLOU TAF UTC NOAA

Error!

Example: see airport list